sensor_id;sensor_type;location;lat;lon;timestamp;temperature;humidity
20856;DHT22;63058;49.424;8.420;2023-04-08T00:01:38;11.90;91.90
20856;DHT22;63058;49.424;8.420;2023-04-08T00:04:04;12.00;91.90
20856;DHT22;63058;49.424;8.420;2023-04-08T00:06:29;12.00;91.90
20856;DHT22;63058;49.424;8.420;2023-04-08T00:08:56;12.10;91.90
20856;DHT22;63058;49.424;8.420;2023-04-08T00:11:21;12.20;91.90
20856;DHT22;63058;49.424;8.420;2023-04-08T00:13:47;12.20;91.80
20856;DHT22;63058;49.424;8.420;2023-04-08T00:16:12;12.30;91.80
20856;DHT22;63058;49.424;8.420;2023-04-08T00:18:38;12.30;91.70
20856;DHT22;63058;49.424;8.420;2023-04-08T00:21:04;12.30;91.70
20856;DHT22;63058;49.424;8.420;2023-04-08T00:23:29;12.40;91.70
20856;DHT22;63058;49.424;8.420;2023-04-08T00:25:55;12.30;91.70
20856;DHT22;63058;49.424;8.420;2023-04-08T00:28:20;12.30;91.70
20856;DHT22;63058;49.424;8.420;2023-04-08T00:30:46;12.40;91.70
20856;DHT22;63058;49.424;8.420;2023-04-08T00:33:54;12.30;91.70
20856;DHT22;63058;49.424;8.420;2023-04-08T00:44:38;12.40;91.70
20856;DHT22;63058;49.424;8.420;2023-04-08T00:58:08;12.30;91.70
20856;DHT22;63058;49.424;8.420;2023-04-08T01:01:36;12.40;91.80
20856;DHT22;63058;49.424;8.420;2023-04-08T01:08:14;12.30;91.70
20856;DHT22;63058;49.424;8.420;2023-04-08T01:15:23;12.50;91.90
20856;DHT22;63058;49.424;8.420;2023-04-08T01:18:50;12.40;91.80
20856;DHT22;63058;49.424;8.420;2023-04-08T01:32:10;12.50;92.00
20856;DHT22;63058;49.424;8.420;2023-04-08T01:38:40;12.50;91.80
20856;DHT22;63058;49.424;8.420;2023-04-08T01:44:57;12.50;92.00
20856;DHT22;63058;49.424;8.420;2023-04-08T01:55:09;12.40;91.90
20856;DHT22;63058;49.424;8.420;2023-04-08T01:58:12;12.30;91.90
20856;DHT22;63058;49.424;8.420;2023-04-08T02:07:45;12.20;91.90
20856;DHT22;63058;49.424;8.420;2023-04-08T02:10:55;12.20;91.90
20856;DHT22;63058;49.424;8.420;2023-04-08T02:24:06;12.00;91.90
20856;DHT22;63058;49.424;8.420;2023-04-08T02:30:27;12.00;91.90
20856;DHT22;63058;49.424;8.420;2023-04-08T02:36:29;12.00;92.00
20856;DHT22;63058;49.424;8.420;2023-04-08T02:42:59;11.90;92.10
20856;DHT22;63058;49.424;8.420;2023-04-08T02:46:00;11.90;92.10
20856;DHT22;63058;49.424;8.420;2023-04-08T02:48:50;11.80;92.00
20856;DHT22;63058;49.424;8.420;2023-04-08T02:52:04;11.80;92.00
20856;DHT22;63058;49.424;8.420;2023-04-08T02:58:27;11.80;92.10
20856;DHT22;63058;49.424;8.420;2023-04-08T03:01:25;11.80;92.20
20856;DHT22;63058;49.424;8.420;2023-04-08T03:04:35;11.90;92.20
20856;DHT22;63058;49.424;8.420;2023-04-08T03:14:05;11.80;92.20
20856;DHT22;63058;49.424;8.420;2023-04-08T03:23:45;11.90;92.20
20856;DHT22;63058;49.424;8.420;2023-04-08T03:30:04;11.90;92.30
20856;DHT22;63058;49.424;8.420;2023-04-08T03:33:34;11.80;92.30
20856;DHT22;63058;49.424;8.420;2023-04-08T03:42:59;11.70;92.50
20856;DHT22;63058;49.424;8.420;2023-04-08T03:45:58;11.80;92.60
20856;DHT22;63058;49.424;8.420;2023-04-08T03:49:05;11.90;92.60
20856;DHT22;63058;49.424;8.420;2023-04-08T03:58:45;11.90;92.70
20856;DHT22;63058;49.424;8.420;2023-04-08T04:01:33;11.90;92.90
20856;DHT22;63058;49.424;8.420;2023-04-08T04:04:44;11.90;92.70
20856;DHT22;63058;49.424;8.420;2023-04-08T04:13:42;12.10;92.30
20856;DHT22;63058;49.424;8.420;2023-04-08T04:19:37;12.00;92.70
20856;DHT22;63058;49.424;8.420;2023-04-08T04:22:40;12.00;92.60
20856;DHT22;63058;49.424;8.420;2023-04-08T04:25:28;12.00;92.70
20856;DHT22;63058;49.424;8.420;2023-04-08T04:28:42;12.00;92.60
20856;DHT22;63058;49.424;8.420;2023-04-08T04:31:31;11.90;92.50
20856;DHT22;63058;49.424;8.420;2023-04-08T04:44:13;11.90;92.80
20856;DHT22;63058;49.424;8.420;2023-04-08T04:47:31;11.90;92.90
20856;DHT22;63058;49.424;8.420;2023-04-08T04:54:10;11.80;92.90
20856;DHT22;63058;49.424;8.420;2023-04-08T05:07:51;11.80;93.10
20856;DHT22;63058;49.424;8.420;2023-04-08T05:24:38;11.80;93.20
20856;DHT22;63058;49.424;8.420;2023-04-08T05:38:11;11.90;93.40
20856;DHT22;63058;49.424;8.420;2023-04-08T05:51:48;12.00;93.60
20856;DHT22;63058;49.424;8.420;2023-04-08T05:54:34;12.10;93.70
20856;DHT22;63058;49.424;8.420;2023-04-08T05:56:59;12.10;93.80
20856;DHT22;63058;49.424;8.420;2023-04-08T05:59:25;12.20;93.80
20856;DHT22;63058;49.424;8.420;2023-04-08T06:01:51;12.20;93.80
20856;DHT22;63058;49.424;8.420;2023-04-08T06:04:18;12.20;93.90
20856;DHT22;63058;49.424;8.420;2023-04-08T06:06:46;12.30;93.80
20856;DHT22;63058;49.424;8.420;2023-04-08T06:09:12;12.40;93.80
20856;DHT22;63058;49.424;8.420;2023-04-08T06:11:44;12.30;93.80
20856;DHT22;63058;49.424;8.420;2023-04-08T06:14:15;12.30;93.80
20856;DHT22;63058;49.424;8.420;2023-04-08T06:16:49;12.40;93.80
20856;DHT22;63058;49.424;8.420;2023-04-08T06:19:19;12.40;93.70
20856;DHT22;63058;49.424;8.420;2023-04-08T06:21:47;12.40;93.90
20856;DHT22;63058;49.424;8.420;2023-04-08T06:24:14;12.50;93.90
20856;DHT22;63058;49.424;8.420;2023-04-08T06:26:42;12.60;94.10
20856;DHT22;63058;49.424;8.420;2023-04-08T06:29:11;12.60;94.10
20856;DHT22;63058;49.424;8.420;2023-04-08T06:31:37;12.70;94.00
20856;DHT22;63058;49.424;8.420;2023-04-08T06:34:05;12.70;94.00
20856;DHT22;63058;49.424;8.420;2023-04-08T06:36:32;12.80;93.80
20856;DHT22;63058;49.424;8.420;2023-04-08T06:39:20;12.90;93.40
20856;DHT22;63058;49.424;8.420;2023-04-08T06:42:00;12.90;92.70
20856;DHT22;63058;49.424;8.420;2023-04-08T06:44:32;13.00;92.90
20856;DHT22;63058;49.424;8.420;2023-04-08T06:47:01;12.90;92.60
20856;DHT22;63058;49.424;8.420;2023-04-08T06:49:35;13.00;92.50
20856;DHT22;63058;49.424;8.420;2023-04-08T06:52:09;12.90;92.40
20856;DHT22;63058;49.424;8.420;2023-04-08T06:54:35;12.90;92.40
20856;DHT22;63058;49.424;8.420;2023-04-08T06:57:09;12.90;92.50
20856;DHT22;63058;49.424;8.420;2023-04-08T06:59:38;12.80;92.30
20856;DHT22;63058;49.424;8.420;2023-04-08T07:02:04;12.80;92.50
20856;DHT22;63058;49.424;8.420;2023-04-08T07:04:39;12.80;92.60
20856;DHT22;63058;49.424;8.420;2023-04-08T07:07:04;12.70;92.40
20856;DHT22;63058;49.424;8.420;2023-04-08T07:09:30;12.80;92.60
20856;DHT22;63058;49.424;8.420;2023-04-08T07:11:56;12.80;92.60
20856;DHT22;63058;49.424;8.420;2023-04-08T07:14:22;12.80;92.70
20856;DHT22;63058;49.424;8.420;2023-04-08T07:16:51;12.80;92.80
20856;DHT22;63058;49.424;8.420;2023-04-08T07:19:24;12.80;92.80
20856;DHT22;63058;49.424;8.420;2023-04-08T07:21:56;12.80;92.50
20856;DHT22;63058;49.424;8.420;2023-04-08T07:24:22;12.90;92.60
20856;DHT22;63058;49.424;8.420;2023-04-08T07:26:48;12.90;92.70
20856;DHT22;63058;49.424;8.420;2023-04-08T07:29:21;13.00;92.70
20856;DHT22;63058;49.424;8.420;2023-04-08T07:32:04;12.90;92.70
20856;DHT22;63058;49.424;8.420;2023-04-08T07:34:36;13.00;92.50
20856;DHT22;63058;49.424;8.420;2023-04-08T07:37:04;13.00;92.60
20856;DHT22;63058;49.424;8.420;2023-04-08T07:39:30;13.00;92.50
20856;DHT22;63058;49.424;8.420;2023-04-08T07:41:56;13.10;92.60
20856;DHT22;63058;49.424;8.420;2023-04-08T07:44:21;13.20;92.60
20856;DHT22;63058;49.424;8.420;2023-04-08T07:46:47;13.30;92.30
20856;DHT22;63058;49.424;8.420;2023-04-08T07:49:18;13.30;92.50
20856;DHT22;63058;49.424;8.420;2023-04-08T07:51:44;13.30;92.30
20856;DHT22;63058;49.424;8.420;2023-04-08T07:54:10;13.30;92.40
20856;DHT22;63058;49.424;8.420;2023-04-08T07:56:40;13.40;92.50
20856;DHT22;63058;49.424;8.420;2023-04-08T07:59:11;13.40;92.40
20856;DHT22;63058;49.424;8.420;2023-04-08T08:01:39;13.30;92.30
20856;DHT22;63058;49.424;8.420;2023-04-08T08:04:08;13.50;92.40
20856;DHT22;63058;49.424;8.420;2023-04-08T08:06:34;13.40;92.50
20856;DHT22;63058;49.424;8.420;2023-04-08T08:09:02;13.40;92.60
20856;DHT22;63058;49.424;8.420;2023-04-08T08:11:28;13.50;92.60
20856;DHT22;63058;49.424;8.420;2023-04-08T08:13:53;13.60;92.30
20856;DHT22;63058;49.424;8.420;2023-04-08T08:16:19;13.70;92.40
20856;DHT22;63058;49.424;8.420;2023-04-08T08:18:51;13.70;92.60
20856;DHT22;63058;49.424;8.420;2023-04-08T08:21:20;13.80;91.90
20856;DHT22;63058;49.424;8.420;2023-04-08T08:23:46;13.90;92.20
20856;DHT22;63058;49.424;8.420;2023-04-08T08:26:12;14.00;92.20
20856;DHT22;63058;49.424;8.420;2023-04-08T08:28:38;14.10;92.30
20856;DHT22;63058;49.424;8.420;2023-04-08T08:31:04;14.20;92.10
20856;DHT22;63058;49.424;8.420;2023-04-08T08:33:31;14.30;92.10
20856;DHT22;63058;49.424;8.420;2023-04-08T08:35:56;14.40;92.10
20856;DHT22;63058;49.424;8.420;2023-04-08T08:38:25;14.50;92.10
20856;DHT22;63058;49.424;8.420;2023-04-08T08:40:55;14.70;92.20
20856;DHT22;63058;49.424;8.420;2023-04-08T08:43:22;14.80;92.10
20856;DHT22;63058;49.424;8.420;2023-04-08T08:45:47;14.90;90.20
20856;DHT22;63058;49.424;8.420;2023-04-08T08:48:13;15.00;91.10
20856;DHT22;63058;49.424;8.420;2023-04-08T08:50:39;15.10;91.10
20856;DHT22;63058;49.424;8.420;2023-04-08T08:53:04;15.20;91.40
20856;DHT22;63058;49.424;8.420;2023-04-08T08:55:31;15.30;91.10
20856;DHT22;63058;49.424;8.420;2023-04-08T08:58:03;15.40;90.90
20856;DHT22;63058;49.424;8.420;2023-04-08T09:00:36;15.50;90.80
20856;DHT22;63058;49.424;8.420;2023-04-08T09:03:25;15.50;90.00
20856;DHT22;63058;49.424;8.420;2023-04-08T09:06:01;15.60;90.10
20856;DHT22;63058;49.424;8.420;2023-04-08T09:11:16;15.80;90.00
20856;DHT22;63058;49.424;8.420;2023-04-08T09:13:43;15.90;89.50
20856;DHT22;63058;49.424;8.420;2023-04-08T09:16:10;16.00;90.60
20856;DHT22;63058;49.424;8.420;2023-04-08T09:18:38;16.20;91.10
20856;DHT22;63058;49.424;8.420;2023-04-08T09:21:06;16.30;90.20
20856;DHT22;63058;49.424;8.420;2023-04-08T09:23:49;16.40;89.70
20856;DHT22;63058;49.424;8.420;2023-04-08T09:26:17;16.60;89.20
20856;DHT22;63058;49.424;8.420;2023-04-08T09:31:27;16.70;88.60
20856;DHT22;63058;49.424;8.420;2023-04-08T09:33:55;16.90;85.60
20856;DHT22;63058;49.424;8.420;2023-04-08T09:36:21;16.90;87.70
20856;DHT22;63058;49.424;8.420;2023-04-08T09:38:47;17.00;87.00
20856;DHT22;63058;49.424;8.420;2023-04-08T09:41:17;17.10;87.60
20856;DHT22;63058;49.424;8.420;2023-04-08T09:43:47;17.00;85.20
20856;DHT22;63058;49.424;8.420;2023-04-08T09:46:15;17.20;86.10
20856;DHT22;63058;49.424;8.420;2023-04-08T09:49:12;17.10;84.70
20856;DHT22;63058;49.424;8.420;2023-04-08T09:51:39;17.20;85.10
20856;DHT22;63058;49.424;8.420;2023-04-08T09:54:14;17.30;85.50
20856;DHT22;63058;49.424;8.420;2023-04-08T09:56:57;17.30;85.90
20856;DHT22;63058;49.424;8.420;2023-04-08T09:59:26;17.40;82.60
20856;DHT22;63058;49.424;8.420;2023-04-08T10:01:56;17.40;83.00
20856;DHT22;63058;49.424;8.420;2023-04-08T10:04:25;17.50;81.60
20856;DHT22;63058;49.424;8.420;2023-04-08T10:06:56;17.50;80.70
20856;DHT22;63058;49.424;8.420;2023-04-08T10:09:22;17.50;82.30
20856;DHT22;63058;49.424;8.420;2023-04-08T10:11:49;17.50;82.60
20856;DHT22;63058;49.424;8.420;2023-04-08T10:14:15;17.60;81.10
20856;DHT22;63058;49.424;8.420;2023-04-08T10:16:41;17.60;81.90
20856;DHT22;63058;49.424;8.420;2023-04-08T10:19:37;17.60;82.60
20856;DHT22;63058;49.424;8.420;2023-04-08T10:27:42;17.90;79.20
20856;DHT22;63058;49.424;8.420;2023-04-08T10:32:53;18.00;73.60
20856;DHT22;63058;49.424;8.420;2023-04-08T10:35:34;17.90;75.10
20856;DHT22;63058;49.424;8.420;2023-04-08T10:38:00;17.80;73.10
20856;DHT22;63058;49.424;8.420;2023-04-08T10:40:26;17.70;70.80
20856;DHT22;63058;49.424;8.420;2023-04-08T10:42:58;17.60;72.70
20856;DHT22;63058;49.424;8.420;2023-04-08T10:45:24;17.50;72.50
20856;DHT22;63058;49.424;8.420;2023-04-08T10:47:50;17.40;73.50
20856;DHT22;63058;49.424;8.420;2023-04-08T10:50:18;17.30;74.70
20856;DHT22;63058;49.424;8.420;2023-04-08T10:52:52;17.30;73.40
20856;DHT22;63058;49.424;8.420;2023-04-08T10:55:25;17.20;71.60
20856;DHT22;63058;49.424;8.420;2023-04-08T10:57:52;17.10;73.10
20856;DHT22;63058;49.424;8.420;2023-04-08T11:00:18;17.00;74.20
20856;DHT22;63058;49.424;8.420;2023-04-08T11:02:44;16.90;72.60
20856;DHT22;63058;49.424;8.420;2023-04-08T11:05:13;16.80;72.40
20856;DHT22;63058;49.424;8.420;2023-04-08T11:07:49;16.70;74.30
20856;DHT22;63058;49.424;8.420;2023-04-08T11:11:49;16.80;74.50
20856;DHT22;63058;49.424;8.420;2023-04-08T11:13:54;16.70;74.70
20856;DHT22;63058;49.424;8.420;2023-04-08T11:16:29;16.90;76.30
20856;DHT22;63058;49.424;8.420;2023-04-08T11:18:55;16.90;77.00
20856;DHT22;63058;49.424;8.420;2023-04-08T11:21:24;17.00;70.40
20856;DHT22;63058;49.424;8.420;2023-04-08T11:23:54;17.10;69.60
20856;DHT22;63058;49.424;8.420;2023-04-08T11:26:21;17.10;72.20
20856;DHT22;63058;49.424;8.420;2023-04-08T11:28:53;17.20;73.50
20856;DHT22;63058;49.424;8.420;2023-04-08T11:31:25;17.30;73.10
20856;DHT22;63058;49.424;8.420;2023-04-08T11:33:53;17.40;71.10
20856;DHT22;63058;49.424;8.420;2023-04-08T11:36:23;17.40;71.00
20856;DHT22;63058;49.424;8.420;2023-04-08T11:38:56;17.40;72.90
20856;DHT22;63058;49.424;8.420;2023-04-08T11:41:22;17.40;73.60
20856;DHT22;63058;49.424;8.420;2023-04-08T11:43:55;17.50;73.80
20856;DHT22;63058;49.424;8.420;2023-04-08T11:46:21;17.50;70.00
20856;DHT22;63058;49.424;8.420;2023-04-08T11:49:04;17.50;73.30
20856;DHT22;63058;49.424;8.420;2023-04-08T11:51:31;17.50;70.10
20856;DHT22;63058;49.424;8.420;2023-04-08T11:54:05;17.60;72.30
20856;DHT22;63058;49.424;8.420;2023-04-08T11:56:44;17.70;72.90
20856;DHT22;63058;49.424;8.420;2023-04-08T11:59:14;18.00;71.90
20856;DHT22;63058;49.424;8.420;2023-04-08T12:01:40;18.20;73.60
20856;DHT22;63058;49.424;8.420;2023-04-08T12:04:05;18.50;71.90
20856;DHT22;63058;49.424;8.420;2023-04-08T12:06:34;18.70;70.00
20856;DHT22;63058;49.424;8.420;2023-04-08T12:09:00;18.90;70.30
20856;DHT22;63058;49.424;8.420;2023-04-08T12:11:26;19.10;71.60
20856;DHT22;63058;49.424;8.420;2023-04-08T12:13:51;19.40;74.20
20856;DHT22;63058;49.424;8.420;2023-04-08T12:16:18;19.80;72.30
20856;DHT22;63058;49.424;8.420;2023-04-08T12:18:44;20.20;65.50
20856;DHT22;63058;49.424;8.420;2023-04-08T12:21:11;20.40;66.60
20856;DHT22;63058;49.424;8.420;2023-04-08T12:23:37;20.50;66.00
20856;DHT22;63058;49.424;8.420;2023-04-08T12:26:02;20.60;66.20
20856;DHT22;63058;49.424;8.420;2023-04-08T12:28:28;20.70;67.10
20856;DHT22;63058;49.424;8.420;2023-04-08T12:30:54;20.70;68.00
20856;DHT22;63058;49.424;8.420;2023-04-08T12:35:56;21.00;67.30
20856;DHT22;63058;49.424;8.420;2023-04-08T12:38:23;21.20;67.60
20856;DHT22;63058;49.424;8.420;2023-04-08T12:40:49;21.30;67.20
20856;DHT22;63058;49.424;8.420;2023-04-08T12:43:15;21.40;66.80
20856;DHT22;63058;49.424;8.420;2023-04-08T12:45:41;21.40;62.60
20856;DHT22;63058;49.424;8.420;2023-04-08T12:48:06;21.30;59.90
20856;DHT22;63058;49.424;8.420;2023-04-08T12:50:32;21.20;61.60
20856;DHT22;63058;49.424;8.420;2023-04-08T12:52:58;21.10;61.90
20856;DHT22;63058;49.424;8.420;2023-04-08T12:55:24;21.00;61.10
20856;DHT22;63058;49.424;8.420;2023-04-08T12:57:50;21.00;63.60
20856;DHT22;63058;49.424;8.420;2023-04-08T13:00:16;21.10;65.30
20856;DHT22;63058;49.424;8.420;2023-04-08T13:02:42;21.20;63.90
20856;DHT22;63058;49.424;8.420;2023-04-08T13:05:09;21.40;65.50
20856;DHT22;63058;49.424;8.420;2023-04-08T13:07:35;21.60;66.80
20856;DHT22;63058;49.424;8.420;2023-04-08T13:10:01;21.90;68.00
20856;DHT22;63058;49.424;8.420;2023-04-08T13:12:28;22.20;68.50
20856;DHT22;63058;49.424;8.420;2023-04-08T13:14:54;22.40;67.90
20856;DHT22;63058;49.424;8.420;2023-04-08T13:17:20;22.40;67.30
20856;DHT22;63058;49.424;8.420;2023-04-08T13:19:45;22.60;67.30
20856;DHT22;63058;49.424;8.420;2023-04-08T13:22:15;22.60;65.30
20856;DHT22;63058;49.424;8.420;2023-04-08T13:24:40;22.60;64.90
20856;DHT22;63058;49.424;8.420;2023-04-08T13:27:06;22.70;66.30
20856;DHT22;63058;49.424;8.420;2023-04-08T13:29:32;22.70;65.70
20856;DHT22;63058;49.424;8.420;2023-04-08T13:31:58;22.70;65.70
20856;DHT22;63058;49.424;8.420;2023-04-08T13:34:23;22.70;65.30
20856;DHT22;63058;49.424;8.420;2023-04-08T13:36:49;22.60;65.80
20856;DHT22;63058;49.424;8.420;2023-04-08T13:39:15;22.60;64.40
20856;DHT22;63058;49.424;8.420;2023-04-08T13:41:40;22.40;63.20
20856;DHT22;63058;49.424;8.420;2023-04-08T13:44:06;22.30;64.40
20856;DHT22;63058;49.424;8.420;2023-04-08T13:46:32;22.10;63.60
20856;DHT22;63058;49.424;8.420;2023-04-08T13:48:57;22.00;64.40
20856;DHT22;63058;49.424;8.420;2023-04-08T13:51:23;22.00;66.20
20856;DHT22;63058;49.424;8.420;2023-04-08T13:53:49;22.10;66.40
20856;DHT22;63058;49.424;8.420;2023-04-08T13:56:14;22.30;63.80
20856;DHT22;63058;49.424;8.420;2023-04-08T13:58:40;22.40;65.30
20856;DHT22;63058;49.424;8.420;2023-04-08T14:01:06;22.40;64.80
20856;DHT22;63058;49.424;8.420;2023-04-08T14:03:31;22.60;65.00
20856;DHT22;63058;49.424;8.420;2023-04-08T14:05:57;22.60;61.70
20856;DHT22;63058;49.424;8.420;2023-04-08T14:08:23;22.50;62.70
20856;DHT22;63058;49.424;8.420;2023-04-08T14:10:52;22.60;65.10
20856;DHT22;63058;49.424;8.420;2023-04-08T14:13:19;22.80;65.70
20856;DHT22;63058;49.424;8.420;2023-04-08T14:15:45;22.90;64.10
20856;DHT22;63058;49.424;8.420;2023-04-08T14:18:11;23.10;65.00
20856;DHT22;63058;49.424;8.420;2023-04-08T14:20:37;23.30;61.40
20856;DHT22;63058;49.424;8.420;2023-04-08T14:23:03;23.60;62.10
20856;DHT22;63058;49.424;8.420;2023-04-08T14:25:29;23.80;60.90
20856;DHT22;63058;49.424;8.420;2023-04-08T14:27:55;24.20;62.50
20856;DHT22;63058;49.424;8.420;2023-04-08T14:30:22;24.50;64.00
20856;DHT22;63058;49.424;8.420;2023-04-08T14:32:48;24.80;62.00
20856;DHT22;63058;49.424;8.420;2023-04-08T14:35:13;24.90;61.40
20856;DHT22;63058;49.424;8.420;2023-04-08T14:37:39;24.80;59.60
20856;DHT22;63058;49.424;8.420;2023-04-08T14:40:05;24.60;59.10
20856;DHT22;63058;49.424;8.420;2023-04-08T14:42:31;24.30;58.40
20856;DHT22;63058;49.424;8.420;2023-04-08T14:44:57;24.10;54.80
20856;DHT22;63058;49.424;8.420;2023-04-08T14:47:22;23.70;53.40
20856;DHT22;63058;49.424;8.420;2023-04-08T14:49:48;23.30;55.40
20856;DHT22;63058;49.424;8.420;2023-04-08T14:52:14;23.00;56.40
20856;DHT22;63058;49.424;8.420;2023-04-08T14:54:39;22.60;56.90
20856;DHT22;63058;49.424;8.420;2023-04-08T14:57:06;22.30;56.70
20856;DHT22;63058;49.424;8.420;2023-04-08T14:59:31;22.00;56.80
20856;DHT22;63058;49.424;8.420;2023-04-08T15:01:58;21.70;57.70
20856;DHT22;63058;49.424;8.420;2023-04-08T15:04:23;21.40;58.60
20856;DHT22;63058;49.424;8.420;2023-04-08T15:06:49;21.10;58.80
20856;DHT22;63058;49.424;8.420;2023-04-08T15:09:14;20.90;59.30
20856;DHT22;63058;49.424;8.420;2023-04-08T15:11:40;20.70;59.80
20856;DHT22;63058;49.424;8.420;2023-04-08T15:14:06;20.50;60.30
20856;DHT22;63058;49.424;8.420;2023-04-08T15:16:33;20.30;60.90
20856;DHT22;63058;49.424;8.420;2023-04-08T15:18:58;20.10;61.00
20856;DHT22;63058;49.424;8.420;2023-04-08T15:21:25;19.90;60.30
20856;DHT22;63058;49.424;8.420;2023-04-08T15:23:51;19.70;60.90
20856;DHT22;63058;49.424;8.420;2023-04-08T15:26:17;19.50;61.60
20856;DHT22;63058;49.424;8.420;2023-04-08T15:28:42;19.30;62.20
20856;DHT22;63058;49.424;8.420;2023-04-08T15:31:08;19.20;62.90
20856;DHT22;63058;49.424;8.420;2023-04-08T15:33:34;19.00;62.70
20856;DHT22;63058;49.424;8.420;2023-04-08T15:36:03;18.90;63.40
20856;DHT22;63058;49.424;8.420;2023-04-08T15:38:29;18.80;64.00
20856;DHT22;63058;49.424;8.420;2023-04-08T15:40:56;18.70;65.00
20856;DHT22;63058;49.424;8.420;2023-04-08T15:43:22;18.60;63.90
20856;DHT22;63058;49.424;8.420;2023-04-08T15:45:47;18.50;65.30
20856;DHT22;63058;49.424;8.420;2023-04-08T15:48:13;18.40;64.70
20856;DHT22;63058;49.424;8.420;2023-04-08T15:50:39;18.30;65.30
20856;DHT22;63058;49.424;8.420;2023-04-08T15:53:06;18.30;66.50
20856;DHT22;63058;49.424;8.420;2023-04-08T15:55:39;18.20;66.10
20856;DHT22;63058;49.424;8.420;2023-04-08T15:58:05;18.20;65.90
20856;DHT22;63058;49.424;8.420;2023-04-08T16:00:31;18.20;66.20
20856;DHT22;63058;49.424;8.420;2023-04-08T16:02:57;18.10;66.30
20856;DHT22;63058;49.424;8.420;2023-04-08T16:05:22;18.10;66.60
20856;DHT22;63058;49.424;8.420;2023-04-08T16:07:48;18.10;66.90
20856;DHT22;63058;49.424;8.420;2023-04-08T16:10:14;18.10;66.80
20856;DHT22;63058;49.424;8.420;2023-04-08T16:12:39;18.00;66.40
20856;DHT22;63058;49.424;8.420;2023-04-08T16:15:05;18.00;67.00
20856;DHT22;63058;49.424;8.420;2023-04-08T16:17:31;17.90;67.30
20856;DHT22;63058;49.424;8.420;2023-04-08T16:19:57;17.90;67.60
20856;DHT22;63058;49.424;8.420;2023-04-08T16:22:22;17.90;68.00
20856;DHT22;63058;49.424;8.420;2023-04-08T16:24:48;17.80;69.10
20856;DHT22;63058;49.424;8.420;2023-04-08T16:27:13;17.90;68.40
20856;DHT22;63058;49.424;8.420;2023-04-08T16:29:40;17.90;68.50
20856;DHT22;63058;49.424;8.420;2023-04-08T16:32:07;17.80;68.90
20856;DHT22;63058;49.424;8.420;2023-04-08T16:34:33;17.90;69.10
20856;DHT22;63058;49.424;8.420;2023-04-08T16:36:59;17.80;69.30
20856;DHT22;63058;49.424;8.420;2023-04-08T16:39:24;18.00;69.70
20856;DHT22;63058;49.424;8.420;2023-04-08T16:41:50;18.10;69.60
20856;DHT22;63058;49.424;8.420;2023-04-08T16:44:15;18.10;67.70
20856;DHT22;63058;49.424;8.420;2023-04-08T16:46:41;18.10;67.80
20856;DHT22;63058;49.424;8.420;2023-04-08T16:49:07;18.10;68.80
20856;DHT22;63058;49.424;8.420;2023-04-08T16:51:33;18.20;69.30
20856;DHT22;63058;49.424;8.420;2023-04-08T16:53:58;18.20;68.40
20856;DHT22;63058;49.424;8.420;2023-04-08T16:56:24;18.20;68.50
20856;DHT22;63058;49.424;8.420;2023-04-08T16:58:50;18.10;68.40
20856;DHT22;63058;49.424;8.420;2023-04-08T17:01:16;18.10;68.80
20856;DHT22;63058;49.424;8.420;2023-04-08T17:03:42;18.10;69.20
20856;DHT22;63058;49.424;8.420;2023-04-08T17:06:12;18.00;68.60
20856;DHT22;63058;49.424;8.420;2023-04-08T17:08:41;18.00;68.90
20856;DHT22;63058;49.424;8.420;2023-04-08T17:11:11;17.90;69.20
20856;DHT22;63058;49.424;8.420;2023-04-08T17:13:41;17.90;68.60
20856;DHT22;63058;49.424;8.420;2023-04-08T17:16:14;17.80;69.10
20856;DHT22;63058;49.424;8.420;2023-04-08T17:18:41;17.70;69.40
20856;DHT22;63058;49.424;8.420;2023-04-08T17:21:07;17.70;68.70
20856;DHT22;63058;49.424;8.420;2023-04-08T17:23:33;17.60;69.20
20856;DHT22;63058;49.424;8.420;2023-04-08T17:25:59;17.50;69.40
20856;DHT22;63058;49.424;8.420;2023-04-08T17:28:25;17.40;69.70
20856;DHT22;63058;49.424;8.420;2023-04-08T17:30:51;17.30;69.90
20856;DHT22;63058;49.424;8.420;2023-04-08T17:33:17;17.20;70.00
20856;DHT22;63058;49.424;8.420;2023-04-08T17:35:43;17.20;70.10
20856;DHT22;63058;49.424;8.420;2023-04-08T17:38:09;17.10;70.30
20856;DHT22;63058;49.424;8.420;2023-04-08T17:40:34;17.00;70.60
20856;DHT22;63058;49.424;8.420;2023-04-08T17:43:00;17.00;70.70
20856;DHT22;63058;49.424;8.420;2023-04-08T17:45:26;16.90;70.70
20856;DHT22;63058;49.424;8.420;2023-04-08T17:47:52;16.90;70.90
20856;DHT22;63058;49.424;8.420;2023-04-08T17:50:17;16.80;70.70
20856;DHT22;63058;49.424;8.420;2023-04-08T17:52:43;16.80;71.10
20856;DHT22;63058;49.424;8.420;2023-04-08T17:55:12;16.70;71.30
20856;DHT22;63058;49.424;8.420;2023-04-08T17:57:37;16.60;71.50
20856;DHT22;63058;49.424;8.420;2023-04-08T18:00:04;16.60;71.80
20856;DHT22;63058;49.424;8.420;2023-04-08T18:02:30;16.60;72.00
20856;DHT22;63058;49.424;8.420;2023-04-08T18:04:55;16.60;72.20
20856;DHT22;63058;49.424;8.420;2023-04-08T18:07:21;16.60;72.40
20856;DHT22;63058;49.424;8.420;2023-04-08T18:09:47;16.50;72.30
20856;DHT22;63058;49.424;8.420;2023-04-08T18:12:13;16.50;72.40
20856;DHT22;63058;49.424;8.420;2023-04-08T18:14:40;16.50;73.40
20856;DHT22;63058;49.424;8.420;2023-04-08T18:17:05;16.50;72.60
20856;DHT22;63058;49.424;8.420;2023-04-08T18:19:31;16.40;72.90
20856;DHT22;63058;49.424;8.420;2023-04-08T18:21:56;16.40;72.80
20856;DHT22;63058;49.424;8.420;2023-04-08T18:24:22;16.40;72.90
20856;DHT22;63058;49.424;8.420;2023-04-08T18:26:48;16.30;73.00
20856;DHT22;63058;49.424;8.420;2023-04-08T18:29:17;16.20;73.20
20856;DHT22;63058;49.424;8.420;2023-04-08T18:31:43;16.20;73.30
20856;DHT22;63058;49.424;8.420;2023-04-08T18:34:08;16.20;73.40
20856;DHT22;63058;49.424;8.420;2023-04-08T18:36:34;16.20;73.50
20856;DHT22;63058;49.424;8.420;2023-04-08T18:39:01;16.10;73.60
20856;DHT22;63058;49.424;8.420;2023-04-08T18:41:26;16.10;74.50
20856;DHT22;63058;49.424;8.420;2023-04-08T18:43:53;16.00;73.80
20856;DHT22;63058;49.424;8.420;2023-04-08T18:46:19;16.00;73.90
20856;DHT22;63058;49.424;8.420;2023-04-08T18:48:45;16.00;74.90
20856;DHT22;63058;49.424;8.420;2023-04-08T18:51:14;15.90;74.20
20856;DHT22;63058;49.424;8.420;2023-04-08T18:53:41;16.00;74.50
20856;DHT22;63058;49.424;8.420;2023-04-08T18:56:17;15.90;74.60
20856;DHT22;63058;49.424;8.420;2023-04-08T18:58:43;15.90;75.10
20856;DHT22;63058;49.424;8.420;2023-04-08T19:01:14;16.00;75.00
20856;DHT22;63058;49.424;8.420;2023-04-08T19:03:40;16.00;75.10
20856;DHT22;63058;49.424;8.420;2023-04-08T19:06:08;16.00;75.70
20856;DHT22;63058;49.424;8.420;2023-04-08T19:08:34;16.00;75.10
20856;DHT22;63058;49.424;8.420;2023-04-08T19:11:00;16.00;75.30
20856;DHT22;63058;49.424;8.420;2023-04-08T19:13:26;16.00;75.40
20856;DHT22;63058;49.424;8.420;2023-04-08T19:15:52;16.00;75.40